Garin, Argentina
Current Conditions -  °F | °C
As of 6:00 AM on Saturday 01 Nov 2014 (Local Time) from SADF Reporting Station
Clear Clear  
Wind Chill: 14°   Ceiling: Unl
Heat Index: 14°   Visibility: 6mi
Dew Point:   Wind: 15mph
Humidity: 72%   Direction: 140°SE
Pressure: 30.21"   Gusts: NA
Location:  34.43°S, 58.73°W
Report Text: SADF 010900Z 14013KT CAVOK 14/09 Q1023
Loading
Personal Weather Stations






























Interactive Weather Map
Tropical Storm Tracking
New forecast layout! Learn more

10-Day Weather Forecast

Advertisements
Track Severe Weather on mobile